createdAt,value
2022-09-13T00:02:14.182Z,99704.56
2022-09-13T00:04:42.096Z,99707.75
2022-09-13T00:07:09.710Z,99704.47
2022-09-13T00:09:38.848Z,99699.16
2022-09-13T00:12:07.896Z,99707.75
2022-09-13T00:14:35.584Z,99709.88
2022-09-13T00:17:03.226Z,99717.91
2022-09-13T00:19:31.038Z,99710.47
2022-09-13T00:21:58.779Z,99697.22
2022-09-13T00:24:26.416Z,99687.53
2022-09-13T00:26:55.276Z,99683.44
2022-09-13T00:29:22.841Z,99678.28
2022-09-13T00:31:50.487Z,99682.75
2022-09-13T00:34:18.096Z,99670.44
2022-09-13T00:36:45.675Z,99671.03
2022-09-13T00:39:13.788Z,99670.06
2022-09-13T00:41:41.561Z,99669.88
2022-09-13T00:44:42.441Z,99673.41
2022-09-13T00:47:12.806Z,99670.13
2022-09-13T00:49:42.781Z,99666.84
2022-09-13T00:52:16.244Z,99655.69
2022-09-13T00:54:47.154Z,99662.28
2022-09-13T00:57:16.921Z,99646.56
2022-09-13T00:59:51.181Z,99641.34
2022-09-13T01:02:20.736Z,99655.00
2022-09-13T01:04:48.683Z,99644.44
2022-09-13T01:07:18.745Z,99638.81
2022-09-13T01:09:50.735Z,99633.88
2022-09-13T01:12:32.034Z,99634.91
2022-09-13T01:15:01.839Z,99633.50
2022-09-13T01:17:33.084Z,99647.25
2022-09-13T01:20:01.986Z,99646.91
2022-09-13T01:22:57.970Z,99639.72
2022-09-13T01:26:02.385Z,99651.00
2022-09-13T01:29:05.352Z,99659.69
2022-09-13T01:31:39.434Z,99658.28
2022-09-13T01:34:25.105Z,99661.34
2022-09-13T01:37:09.034Z,99662.88
2022-09-13T01:39:57.493Z,99650.69
2022-09-13T01:42:36.669Z,99653.81
2022-09-13T01:45:15.049Z,99646.44
2022-09-13T01:47:51.202Z,99640.09
2022-09-13T01:50:25.080Z,99635.88
2022-09-13T01:52:57.621Z,99629.41
2022-09-13T01:55:33.994Z,99625.31
2022-09-13T01:58:10.142Z,99613.22
2022-09-13T02:00:42.823Z,99609.31
2022-09-13T02:03:19.310Z,99599.00
2022-09-13T02:05:52.810Z,99604.41
2022-09-13T02:08:26.665Z,99626.81
2022-09-13T02:10:59.997Z,99641.28
2022-09-13T02:13:34.858Z,99641.84
2022-09-13T02:16:09.438Z,99638.78
2022-09-13T02:18:42.746Z,99655.78
2022-09-13T02:21:14.093Z,99652.25
2022-09-13T02:23:45.951Z,99659.53
2022-09-13T02:26:16.465Z,99667.41
2022-09-13T02:28:49.251Z,99663.44
2022-09-13T02:31:20.417Z,99662.00
2022-09-13T02:33:55.014Z,99666.47
2022-09-13T02:36:25.662Z,99671.06
2022-09-13T02:38:58.350Z,99667.31
2022-09-13T02:41:32.835Z,99664.75
2022-09-13T02:44:08.614Z,99663.53
2022-09-13T02:46:48.272Z,99661.00
2022-09-13T02:49:27.307Z,99654.16
2022-09-13T02:51:58.727Z,99657.81
2022-09-13T02:54:34.172Z,99654.53
2022-09-13T02:57:08.386Z,99657.81
2022-09-13T02:59:36.817Z,99665.81
2022-09-13T03:02:07.963Z,99660.88
2022-09-13T03:04:37.369Z,99661.81
2022-09-13T03:07:07.631Z,99660.28
2022-09-13T03:09:36.661Z,99659.81
2022-09-13T03:12:30.015Z,99656.66
2022-09-13T03:15:05.753Z,99659.22
2022-09-13T03:17:46.463Z,99647.13
2022-09-13T03:20:22.747Z,99639.88
2022-09-13T03:23:11.412Z,99636.22
2022-09-13T03:26:00.843Z,99633.88
2022-09-13T03:28:38.619Z,99632.34
2022-09-13T03:31:10.351Z,99642.69
2022-09-13T03:33:45.521Z,99635.75
2022-09-13T03:36:20.192Z,99639.88
2022-09-13T03:38:56.833Z,99639.06
2022-09-13T03:41:31.022Z,99627.53
2022-09-13T03:44:02.444Z,99624.69
2022-09-13T03:46:35.057Z,99624.84
2022-09-13T03:49:05.922Z,99634.22
2022-09-13T03:51:35.030Z,99624.59
2022-09-13T03:54:06.008Z,99632.47
2022-09-13T03:56:33.831Z,99630.00
2022-09-13T03:59:01.531Z,99627.16
2022-09-13T04:01:29.575Z,99629.53
2022-09-13T04:03:57.306Z,99617.91
2022-09-13T04:06:25.060Z,99612.50
2022-09-13T04:08:53.990Z,99610.59
2022-09-13T04:11:22.092Z,99620.19
2022-09-13T04:13:49.957Z,99618.16
2022-09-13T04:16:17.710Z,99606.09
2022-09-13T04:18:45.311Z,99616.06
2022-09-13T04:21:12.902Z,99602.97
2022-09-13T04:23:40.526Z,99609.06
2022-09-13T04:26:09.487Z,99611.91
2022-09-13T04:28:37.170Z,99604.72
2022-09-13T04:31:04.830Z,99613.78
2022-09-13T04:33:32.531Z,99610.28
2022-09-13T04:36:01.133Z,99619.88
2022-09-13T04:38:31.347Z,99619.06
2022-09-13T04:40:59.106Z,99625.28
2022-09-13T04:43:28.113Z,99629.03
2022-09-13T04:45:55.846Z,99629.25
2022-09-13T04:48:23.454Z,99620.00
2022-09-13T04:50:50.950Z,99621.06
2022-09-13T04:53:18.605Z,99623.19
2022-09-13T04:55:46.303Z,99620.00
2022-09-13T04:58:13.803Z,99626.56
2022-09-13T05:00:42.777Z,99624.69
2022-09-13T05:03:10.358Z,99624.13
2022-09-13T05:05:37.948Z,99625.53
2022-09-13T05:08:05.557Z,99635.41
2022-09-13T05:10:33.219Z,99642.91
2022-09-13T05:13:01.329Z,99644.31
2022-09-13T05:15:28.956Z,99650.78
2022-09-13T05:17:57.915Z,99651.69
2022-09-13T05:20:25.518Z,99638.91
2022-09-13T05:22:53.149Z,99642.69
2022-09-13T05:25:25.420Z,99641.84
2022-09-13T05:27:53.556Z,99642.78
2022-09-13T05:30:21.515Z,99648.56
2022-09-13T05:32:49.122Z,99651.94
2022-09-13T05:35:18.024Z,99645.72
2022-09-13T05:37:45.652Z,99659.34
2022-09-13T05:40:13.546Z,99654.78
2022-09-13T05:42:41.246Z,99652.41
2022-09-13T05:45:10.348Z,99647.00
2022-09-13T05:47:37.987Z,99651.25
2022-09-13T05:50:11.862Z,99654.19
2022-09-13T05:52:42.479Z,99668.16
2022-09-13T05:55:10.696Z,99673.56
2022-09-13T05:57:38.505Z,99675.19
2022-09-13T06:00:06.923Z,99678.13
2022-09-13T06:02:34.693Z,99672.94
2022-09-13T06:05:02.410Z,99670.81
2022-09-13T06:07:30.207Z,99663.22
2022-09-13T06:09:59.190Z,99665.00
2022-09-13T06:12:27.088Z,99665.56
2022-09-13T06:14:54.840Z,99672.88
2022-09-13T06:17:22.431Z,99678.97
2022-09-13T06:19:50.137Z,99668.72
2022-09-13T06:22:17.807Z,99668.22
2022-09-13T06:24:45.473Z,99657.41
2022-09-13T06:27:14.417Z,99657.72
2022-09-13T06:29:42.086Z,99654.00
2022-09-13T06:32:10.895Z,99655.75
2022-09-13T06:34:38.487Z,99648.59
2022-09-13T06:37:06.698Z,99642.72
2022-09-13T06:39:34.298Z,99644.44
2022-09-13T06:42:02.142Z,99649.47
2022-09-13T06:44:31.173Z,99656.06
2022-09-13T06:46:58.852Z,99651.78
2022-09-13T06:49:29.105Z,99667.75
2022-09-13T06:51:56.743Z,99674.09
2022-09-13T06:54:24.332Z,99672.41
2022-09-13T06:56:52.036Z,99665.56
2022-09-13T06:59:19.902Z,99674.53
2022-09-13T07:01:49.145Z,99676.19
2022-09-13T07:04:19.391Z,99688.25
2022-09-13T07:06:48.828Z,99683.06
2022-09-13T07:09:18.282Z,99684.44
2022-09-13T07:11:47.146Z,99682.34
2022-09-13T07:14:16.108Z,99684.94
2022-09-13T07:16:43.995Z,99675.06
2022-09-13T07:19:16.491Z,99677.66
2022-09-13T07:21:45.021Z,99678.78
2022-09-13T07:24:13.304Z,99672.94
2022-09-13T07:26:40.915Z,99671.44
2022-09-13T07:29:11.919Z,99674.41
2022-09-13T07:31:41.060Z,99679.19
2022-09-13T07:34:13.611Z,99682.19
2022-09-13T07:36:43.520Z,99678.44
2022-09-13T07:39:15.100Z,99676.72
2022-09-13T07:41:46.421Z,99674.72
2022-09-13T07:44:14.532Z,99659.63
2022-09-13T07:46:43.638Z,99665.94
2022-09-13T07:49:14.150Z,99670.13
2022-09-13T07:51:47.241Z,99663.41
2022-09-13T07:54:17.574Z,99655.06
2022-09-13T07:56:45.699Z,99658.66
2022-09-13T07:59:15.137Z,99653.00
2022-09-13T08:01:44.516Z,99652.13
2022-09-13T08:04:14.165Z,99643.09
2022-09-13T08:06:43.524Z,99633.88
2022-09-13T08:09:12.044Z,99621.69
2022-09-13T08:11:41.422Z,99626.66
2022-09-13T08:14:12.182Z,99624.66
2022-09-13T08:16:40.514Z,99620.97
2022-09-13T08:19:13.219Z,99625.44
2022-09-13T08:21:43.539Z,99623.53
2022-09-13T08:24:15.854Z,99624.44
2022-09-13T08:26:43.672Z,99621.91
2022-09-13T08:29:13.433Z,99622.19
2022-09-13T08:31:41.022Z,99630.69
2022-09-13T08:34:12.586Z,99630.56
2022-09-13T08:36:41.113Z,99634.97
2022-09-13T08:39:10.857Z,99630.00
2022-09-13T08:42:04.092Z,99638.59
2022-09-13T08:44:35.022Z,99649.59
2022-09-13T08:47:16.439Z,99651.56
2022-09-13T08:49:47.812Z,99644.56
2022-09-13T08:52:26.437Z,99655.75
2022-09-13T08:54:58.350Z,99653.53
2022-09-13T08:57:33.076Z,99650.72
2022-09-13T09:00:07.853Z,99644.81
2022-09-13T09:02:57.642Z,99640.72
2022-09-13T09:05:28.203Z,99636.94
2022-09-13T09:08:00.724Z,99636.88
2022-09-13T09:10:33.419Z,99633.84
2022-09-13T09:13:07.442Z,99636.19
2022-09-13T09:15:38.066Z,99632.69
2022-09-13T09:18:11.876Z,99626.78
2022-09-13T09:20:43.864Z,99627.09
2022-09-13T09:23:21.131Z,99621.16
2022-09-13T09:25:52.891Z,99606.91
2022-09-13T09:28:20.939Z,99603.28
2022-09-13T09:30:59.478Z,99607.72
2022-09-13T09:33:51.171Z,99609.22
2022-09-13T09:36:29.573Z,99620.53
2022-09-13T09:38:58.006Z,99608.34
2022-09-13T09:41:31.534Z,99608.28
2022-09-13T09:44:15.708Z,99597.47
2022-09-13T09:46:45.009Z,99586.88
2022-09-13T09:49:32.025Z,99583.34
2022-09-13T09:52:01.235Z,99597.00
2022-09-13T09:57:14.784Z,99615.38
2022-09-13T09:59:42.376Z,99623.28
2022-09-13T10:02:17.704Z,99642.31
2022-09-13T10:04:57.095Z,99638.31
2022-09-13T10:07:30.260Z,99635.94
2022-09-13T10:10:01.279Z,99641.59
2022-09-13T10:12:33.955Z,99637.03
2022-09-13T10:15:17.881Z,99629.00
2022-09-13T10:18:02.778Z,99622.19
2022-09-13T10:20:31.375Z,99624.84
2022-09-13T10:23:26.478Z,99635.81
2022-09-13T10:26:02.392Z,99643.13
2022-09-13T10:28:34.812Z,99643.75
2022-09-13T10:31:06.669Z,99646.03
2022-09-13T10:33:38.072Z,99650.19
2022-09-13T10:36:09.544Z,99646.41
2022-09-13T10:38:42.986Z,99634.69
2022-09-13T10:41:24.064Z,99636.41
2022-09-13T10:43:58.131Z,99639.66
2022-09-13T10:46:26.276Z,99639.63
2022-09-13T10:48:56.063Z,99633.38
2022-09-13T10:51:36.731Z,99649.19
2022-09-13T10:54:21.057Z,99637.97
2022-09-13T10:56:49.440Z,99647.56
2022-09-13T10:59:29.528Z,99644.25
2022-09-13T11:02:20.158Z,99649.97
2022-09-13T11:05:06.258Z,99641.69
2022-09-13T11:07:58.734Z,99637.69
2022-09-13T11:10:33.628Z,99635.78
2022-09-13T11:13:08.918Z,99620.00
2022-09-13T11:15:48.951Z,99622.75
2022-09-13T11:18:45.047Z,99624.97
2022-09-13T11:21:25.555Z,99623.81
2022-09-13T11:24:17.135Z,99626.41
2022-09-13T11:26:57.046Z,99618.19
2022-09-13T11:29:35.981Z,99615.41
2022-09-13T11:32:18.708Z,99605.75
2022-09-13T11:35:08.293Z,99598.34
2022-09-13T11:37:46.307Z,99611.28
2022-09-13T11:40:30.817Z,99610.00
2022-09-13T11:43:11.125Z,99604.84
2022-09-13T11:45:46.603Z,99601.09
2022-09-13T11:48:35.721Z,99594.31
2022-09-13T11:51:10.377Z,99588.94
2022-09-13T11:53:55.407Z,99582.16
2022-09-13T11:56:29.168Z,99577.34
2022-09-13T11:59:03.998Z,99579.03
2022-09-13T12:01:38.226Z,99567.16
2022-09-13T12:04:14.726Z,99576.31
2022-09-13T12:06:48.105Z,99581.84
2022-09-13T12:09:20.652Z,99579.72
2022-09-13T12:11:52.684Z,99572.00
2022-09-13T12:14:24.442Z,99573.19
2022-09-13T12:16:55.883Z,99557.41
2022-09-13T12:19:28.262Z,99562.91
2022-09-13T12:21:59.156Z,99557.41
2022-09-13T12:24:35.868Z,99567.06
2022-09-13T12:27:09.026Z,99555.56
2022-09-13T12:29:41.713Z,99548.63
2022-09-13T12:32:11.206Z,99539.72
2022-09-13T12:34:46.635Z,99537.75
2022-09-13T12:37:39.332Z,99529.91
2022-09-13T12:40:31.465Z,99521.19
2022-09-13T12:43:11.610Z,99524.50
2022-09-13T12:45:58.342Z,99519.25
2022-09-13T12:48:50.257Z,99520.34
2022-09-13T12:51:32.157Z,99525.50
2022-09-13T12:54:33.618Z,99530.13
2022-09-13T12:57:17.291Z,99529.50
2022-09-13T13:00:13.438Z,99528.47
2022-09-13T13:02:45.118Z,99531.38
2022-09-13T13:05:25.794Z,99533.81
2022-09-13T13:07:57.610Z,99532.19
2022-09-13T13:10:32.388Z,99519.44
2022-09-13T13:13:15.292Z,99523.47
2022-09-13T13:15:59.741Z,99516.88
2022-09-13T13:18:30.729Z,99516.63
2022-09-13T13:21:40.289Z,99514.50
2022-09-13T13:24:45.332Z,99517.44
2022-09-13T13:27:38.180Z,99513.59
2022-09-13T13:30:41.714Z,99510.25
2022-09-13T13:33:28.595Z,99508.34
2022-09-13T13:35:56.568Z,99500.13
2022-09-13T13:38:49.461Z,99500.22
2022-09-13T13:41:53.427Z,99502.19
2022-09-13T13:44:57.821Z,99492.81
2022-09-13T13:48:08.151Z,99489.63
2022-09-13T13:50:39.250Z,99492.44
2022-09-13T13:53:23.809Z,99480.56
2022-09-13T13:56:09.170Z,99478.81
2022-09-13T13:58:48.014Z,99482.75
2022-09-13T14:01:21.994Z,99472.03
2022-09-13T14:03:59.976Z,99458.50
2022-09-13T14:06:33.497Z,99473.09
2022-09-13T14:09:07.374Z,99469.00
2022-09-13T14:11:47.892Z,99465.38
2022-09-13T14:14:29.789Z,99457.94
2022-09-13T14:17:23.776Z,99462.38
2022-09-13T14:19:54.008Z,99458.22
2022-09-13T14:22:23.867Z,99455.53
2022-09-13T14:24:53.592Z,99445.81
2022-09-13T14:27:24.142Z,99451.53
2022-09-13T14:29:55.029Z,99452.88
2022-09-13T14:32:29.310Z,99456.97
2022-09-13T14:35:02.719Z,99461.16
2022-09-13T14:37:32.471Z,99456.31
2022-09-13T14:40:03.156Z,99444.50
2022-09-13T14:42:40.604Z,99438.13
2022-09-13T14:45:14.172Z,99439.38
2022-09-13T14:47:50.225Z,99439.13
2022-09-13T14:50:21.807Z,99452.88
2022-09-13T14:52:53.006Z,99456.97
2022-09-13T14:55:25.704Z,99449.59
2022-09-13T14:57:58.488Z,99438.44
2022-09-13T15:00:27.585Z,99432.09
2022-09-13T15:02:59.729Z,99426.06
2022-09-13T15:05:30.970Z,99426.03
2022-09-13T15:07:59.649Z,99430.09
2022-09-13T15:10:30.088Z,99433.41
2022-09-13T15:13:09.118Z,99424.44
2022-09-13T15:15:39.034Z,99423.88
2022-09-13T15:18:25.667Z,99423.00
2022-09-13T15:20:55.418Z,99415.13
2022-09-13T15:23:26.087Z,99419.75
2022-09-13T15:25:56.245Z,99411.63
2022-09-13T15:28:27.039Z,99415.16
2022-09-13T15:30:56.337Z,99408.66
2022-09-13T15:33:28.915Z,99412.50
2022-09-13T15:36:17.517Z,99413.63
2022-09-13T15:39:00.401Z,99415.56
2022-09-13T15:41:32.294Z,99404.97
2022-09-13T15:44:01.110Z,99408.78
2022-09-13T15:46:29.567Z,99414.81
2022-09-13T15:49:01.714Z,99401.47
2022-09-13T15:51:36.826Z,99406.38
2022-09-13T15:54:11.546Z,99403.69
2022-09-13T15:56:40.905Z,99397.72
2022-09-13T15:59:10.046Z,99394.19
2022-09-13T16:01:37.685Z,99397.44
2022-09-13T16:04:07.598Z,99391.47
2022-09-13T16:06:35.195Z,99394.47
2022-09-13T16:09:02.997Z,99390.34
2022-09-13T16:11:30.549Z,99395.81
2022-09-13T16:13:58.172Z,99390.91
2022-09-13T16:16:25.879Z,99389.03
2022-09-13T16:18:53.507Z,99384.69
2022-09-13T16:21:22.575Z,99382.81
2022-09-13T16:23:50.464Z,99389.03
2022-09-13T16:26:18.266Z,99394.50
2022-09-13T16:28:45.854Z,99382.25
2022-09-13T16:31:14.858Z,99385.00
2022-09-13T16:33:42.421Z,99378.44
2022-09-13T16:36:12.609Z,99377.09
2022-09-13T16:38:41.940Z,99381.44
2022-09-13T16:41:09.592Z,99377.34
2022-09-13T16:43:37.173Z,99376.81
2022-09-13T16:46:08.032Z,99379.56
2022-09-13T16:48:36.772Z,99382.84
2022-09-13T16:51:04.960Z,99385.28
2022-09-13T16:53:34.879Z,99386.91
2022-09-13T16:56:08.278Z,99393.72
2022-09-13T16:58:37.499Z,99395.91
2022-09-13T17:01:05.796Z,99403.00
2022-09-13T17:03:36.005Z,99403.00
2022-09-13T17:06:05.458Z,99400.81
2022-09-13T17:08:34.056Z,99401.38
2022-09-13T17:11:05.379Z,99403.00
2022-09-13T17:13:34.880Z,99392.13
2022-09-13T17:16:03.030Z,99395.66
2022-09-13T17:18:30.791Z,99401.91
2022-09-13T17:21:00.768Z,99403.00
2022-09-13T17:23:28.497Z,99414.16
2022-09-13T17:25:56.168Z,99420.16
2022-09-13T17:28:23.895Z,99427.78
2022-09-13T17:30:52.873Z,99420.41
2022-09-13T17:33:20.664Z,99423.94
2022-09-13T17:35:48.254Z,99426.41
2022-09-13T17:38:16.221Z,99426.41
2022-09-13T17:40:43.830Z,99417.97
2022-09-13T17:43:17.487Z,99408.72
2022-09-13T17:45:49.187Z,99393.50
2022-09-13T17:48:18.459Z,99404.59
2022-09-13T17:50:46.151Z,99411.38
2022-09-13T17:53:14.047Z,99401.66
2022-09-13T17:55:48.006Z,99417.69
2022-09-13T17:58:17.268Z,99431.81
2022-09-13T18:00:45.122Z,99432.88
2022-09-13T18:03:12.922Z,99431.50
2022-09-13T18:05:42.015Z,99426.91
2022-09-13T18:08:09.602Z,99424.97
2022-09-13T18:10:58.333Z,99411.63
2022-09-13T18:13:26.175Z,99411.91
2022-09-13T18:16:00.927Z,99417.34
2022-09-13T18:18:29.023Z,99414.59
2022-09-13T18:20:58.717Z,99420.59
2022-09-13T18:23:28.584Z,99421.69
2022-09-13T18:26:02.965Z,99413.53
2022-09-13T18:28:32.048Z,99420.59
2022-09-13T18:31:01.852Z,99415.66
2022-09-13T18:33:30.197Z,99408.59
2022-09-13T18:36:01.283Z,99398.31
2022-09-13T18:38:29.881Z,99397.25
2022-09-13T18:41:02.494Z,99386.34
2022-09-13T18:43:30.520Z,99387.47
2022-09-13T18:45:59.471Z,99388.00
2022-09-13T18:48:30.326Z,99386.34
2022-09-13T18:50:58.211Z,99382.22
2022-09-13T18:53:34.426Z,99386.34
2022-09-13T18:56:03.763Z,99385.25
2022-09-13T18:58:32.098Z,99397.47
2022-09-13T19:01:07.709Z,99407.50
2022-09-13T19:03:36.219Z,99408.84
2022-09-13T19:06:14.893Z,99408.56
2022-09-13T19:08:47.358Z,99411.28
2022-09-13T19:11:35.620Z,99408.31
2022-09-13T19:14:07.327Z,99407.50
2022-09-13T19:16:36.135Z,99411.25
2022-09-13T19:19:03.796Z,99411.84
2022-09-13T19:21:33.771Z,99415.34
2022-09-13T19:24:10.822Z,99409.91
2022-09-13T19:26:40.888Z,99408.53
2022-09-13T19:29:11.760Z,99403.09
2022-09-13T19:31:41.450Z,99406.91
2022-09-13T19:34:10.198Z,99402.06
2022-09-13T19:36:40.003Z,99403.09
2022-09-13T19:39:09.034Z,99395.00
2022-09-13T19:41:38.192Z,99396.84
2022-09-13T19:44:07.035Z,99397.13
2022-09-13T19:46:37.349Z,99392.28
2022-09-13T19:49:08.250Z,99390.34
2022-09-13T19:51:38.199Z,99383.53
2022-09-13T19:54:07.543Z,99392.78
2022-09-13T19:56:39.297Z,99399.56
2022-09-13T19:59:08.536Z,99395.25
2022-09-13T20:01:38.223Z,99396.63
2022-09-13T20:04:08.421Z,99395.78
2022-09-13T20:06:37.804Z,99393.31
2022-09-13T20:09:05.866Z,99389.78
2022-09-13T20:11:37.608Z,99395.78
2022-09-13T20:14:09.008Z,99391.41
2022-09-13T20:16:41.094Z,99396.84
2022-09-13T20:19:29.649Z,99394.41
2022-09-13T20:21:56.713Z,99396.59
2022-09-13T20:24:24.272Z,99395.19
2022-09-13T20:26:52.177Z,99390.56
2022-09-13T20:29:24.689Z,99390.03
2022-09-13T20:31:52.300Z,99396.00
2022-09-13T20:34:20.164Z,99397.91
2022-09-13T20:36:48.063Z,99400.34
2022-09-13T20:39:16.231Z,99396.59
2022-09-13T20:41:45.079Z,99403.91
2022-09-13T20:44:12.709Z,99416.41
2022-09-13T20:46:43.563Z,99417.50
2022-09-13T20:49:13.780Z,99412.66
2022-09-13T20:51:41.438Z,99399.56
2022-09-13T20:54:09.397Z,99402.28
2022-09-13T20:56:37.058Z,99394.13
2022-09-13T20:59:05.572Z,99403.38
2022-09-13T21:01:34.103Z,99393.84
2022-09-13T21:04:03.828Z,99388.94
2022-09-13T21:07:00.407Z,99389.22
2022-09-13T21:09:27.347Z,99388.91
2022-09-13T21:11:54.950Z,99385.09
2022-09-13T21:14:22.712Z,99390.75
2022-09-13T21:16:51.529Z,99392.41
2022-09-13T21:19:20.518Z,99384.25
2022-09-13T21:21:48.537Z,99380.94
2022-09-13T21:24:16.196Z,99381.72
2022-09-13T21:26:43.715Z,99367.66
2022-09-13T21:29:12.525Z,99364.97
2022-09-13T21:31:43.062Z,99361.47
2022-09-13T21:34:15.043Z,99365.03
2022-09-13T21:36:44.920Z,99361.69
2022-09-13T21:39:12.803Z,99364.13
2022-09-13T21:41:41.724Z,99354.63
2022-09-13T21:44:09.701Z,99345.94
2022-09-13T21:46:39.172Z,99339.38
2022-09-13T21:49:09.068Z,99334.78
2022-09-13T21:51:38.609Z,99328.03
2022-09-13T21:54:11.500Z,99324.72
2022-09-13T21:56:40.899Z,99321.66
2022-09-13T21:59:12.587Z,99319.75
2022-09-13T22:01:41.922Z,99321.91
2022-09-13T22:04:12.340Z,99334.09
2022-09-13T22:06:40.039Z,99344.41
2022-09-13T22:09:10.631Z,99343.63
2022-09-13T22:11:41.140Z,99344.44
2022-09-13T22:14:11.991Z,99350.16
2022-09-13T22:16:41.555Z,99350.16
2022-09-13T22:19:12.946Z,99337.94
2022-09-13T22:21:42.663Z,99328.13
2022-09-13T22:24:18.201Z,99337.41
2022-09-13T22:26:47.678Z,99323.25
2022-09-13T22:29:16.059Z,99311.31
2022-09-13T22:31:46.425Z,99311.13
2022-09-13T22:34:16.607Z,99299.94
2022-09-13T22:36:44.950Z,99298.03
2022-09-13T22:39:16.750Z,99284.47
2022-09-13T22:41:45.154Z,99276.34
2022-09-13T22:44:13.421Z,99282.81
2022-09-13T22:46:42.427Z,99277.91
2022-09-13T22:49:13.403Z,99272.22
2022-09-13T22:51:40.956Z,99280.63
2022-09-13T22:54:11.289Z,99284.97
2022-09-13T22:56:40.438Z,99290.13
2022-09-13T22:59:10.052Z,99295.56
2022-09-13T23:01:38.491Z,99298.53
2022-09-13T23:04:07.109Z,99307.78
2022-09-13T23:06:38.418Z,99304.50
2022-09-13T23:09:16.668Z,99303.19
2022-09-13T23:11:46.470Z,99299.63
2022-09-13T23:14:17.075Z,99297.19
2022-09-13T23:16:46.692Z,99282.84
2022-09-13T23:19:18.063Z,99276.31
2022-09-13T23:21:46.282Z,99274.41
2022-09-13T23:24:15.621Z,99269.50
2022-09-13T23:26:45.585Z,99261.34
2022-09-13T23:29:15.121Z,99258.66
2022-09-13T23:31:43.607Z,99262.94
2022-09-13T23:34:14.830Z,99267.00
2022-09-13T23:36:44.391Z,99262.41
2022-09-13T23:39:16.359Z,99263.47
2022-09-13T23:41:47.414Z,99265.91
2022-09-13T23:44:17.097Z,99267.56
2022-09-13T23:46:47.835Z,99265.41
2022-09-13T23:49:15.743Z,99264.31
2022-09-13T23:51:43.647Z,99267.28
2022-09-13T23:54:13.209Z,99278.69
2022-09-13T23:56:40.968Z,99275.16
2022-09-13T23:59:12.857Z,99278.94
